Time;durP1;ratioP1;P1;durP2;ratioP2;P2;SDS_P1;SDS_P2;PMS_P1;PMS_P2;Temp;Humidity;BMP_temperature;BMP_pressure;BME280_temperature;BME280_humidity;BME280_pressure;Samples;Min_cycle;Max_cycle;Signal;HPM_P1;HPM_P2
2024/01/04 00:00:17;;;;;;;4.67;0.90;;;8.40;21.60;;;;;;5011294;28;20454;-68
2024/01/04 00:02:44;;;;;;;7.43;1.13;;;8.30;21.30;;;;;;5007925;28;20480;-68
2024/01/04 00:05:11;;;;;;;3.20;0.67;;;8.40;21.10;;;;;;5006325;28;20998;-68
2024/01/04 00:07:38;;;;;;;4.10;0.70;;;8.30;21.00;;;;;;5006016;28;20473;-68
2024/01/04 00:10:07;;;;;;;6.20;0.80;;;8.40;20.60;;;;;;5007095;28;21027;-68
2024/01/04 00:12:33;;;;;;;5.37;1.27;;;8.40;20.50;;;;;;5003599;28;20562;-68
2024/01/04 00:15:03;;;;;;;9.00;1.10;;;8.40;20.20;;;;;;5002908;28;20886;-68
2024/01/04 00:17:30;;;;;;;4.03;1.17;;;8.40;20.10;;;;;;5005147;28;20464;-68
2024/01/04 00:19:57;;;;;;;6.00;0.97;;;8.40;20.00;;;;;;5003198;28;20811;-68
2024/01/04 00:22:23;;;;;;;6.87;1.20;;;8.40;20.00;;;;;;5002707;28;20972;-68
2024/01/04 00:24:50;;;;;;;7.40;1.00;;;8.40;19.90;;;;;;5007520;28;20567;-68
2024/01/04 00:27:18;;;;;;;7.10;0.90;;;8.40;20.00;;;;;;5002355;28;20460;-68
2024/01/04 00:29:45;;;;;;;3.87;1.20;;;8.50;19.90;;;;;;5006040;28;20482;-68
2024/01/04 00:32:13;;;;;;;4.53;0.90;;;8.50;19.80;;;;;;5000634;28;21219;-68
2024/01/04 00:34:39;;;;;;;10.00;1.17;;;8.50;19.70;;;;;;5002240;28;20488;-68
2024/01/04 00:37:06;;;;;;;4.90;1.00;;;8.50;19.70;;;;;;5004963;28;20463;-68
2024/01/04 00:39:33;;;;;;;4.20;0.80;;;8.50;19.70;;;;;;5004058;28;20818;-68
2024/01/04 00:41:59;;;;;;;3.30;0.70;;;8.50;19.50;;;;;;5004584;28;20463;-68
2024/01/04 00:44:26;;;;;;;5.47;1.23;;;8.50;19.50;;;;;;5002690;28;20502;-68
2024/01/04 00:46:53;;;;;;;4.60;1.03;;;8.50;19.40;;;;;;5004457;28;20955;-68
2024/01/04 00:49:21;;;;;;;4.70;0.90;;;8.50;19.20;;;;;;5001666;28;20468;-68
2024/01/04 00:51:48;;;;;;;7.10;0.80;;;8.50;19.10;;;;;;5001188;28;20512;-68
2024/01/04 00:54:15;;;;;;;5.53;0.80;;;8.60;18.90;;;;;;5006085;28;20545;-68
2024/01/04 00:56:42;;;;;;;4.23;0.70;;;8.50;18.80;;;;;;5005873;28;20466;-68
2024/01/04 00:59:08;;;;;;;3.93;0.70;;;8.50;18.40;;;;;;5004788;28;20467;-68
2024/01/04 01:01:35;;;;;;;7.30;0.60;;;8.50;18.40;;;;;;5002284;28;20849;-68
2024/01/04 01:04:02;;;;;;;5.97;0.80;;;8.50;18.30;;;;;;5002485;28;20488;-68
2024/01/04 01:06:30;;;;;;;5.30;0.87;;;8.50;18.40;;;;;;5004392;28;21168;-68
2024/01/04 01:08:57;;;;;;;5.40;0.73;;;8.50;18.50;;;;;;5028579;22;20591;-65
2024/01/04 01:11:24;;;;;;;4.07;0.60;;;8.50;18.50;;;;;;5024528;28;20544;-67
2024/01/04 01:13:50;;;;;;;5.00;0.97;;;8.50;18.50;;;;;;5025986;28;20500;-65
2024/01/04 01:16:17;;;;;;;4.53;0.70;;;8.50;18.30;;;;;;5026033;28;20473;-65
2024/01/04 01:18:44;;;;;;;4.30;0.60;;;8.50;18.20;;;;;;5028758;28;20545;-66
2024/01/04 01:21:10;;;;;;;5.10;1.00;;;8.60;18.10;;;;;;5034053;28;20462;-65
2024/01/04 01:23:38;;;;;;;6.10;1.20;;;8.50;18.20;;;;;;5033242;28;20483;-65
2024/01/04 01:26:05;;;;;;;3.30;0.70;;;8.50;18.20;;;;;;5028057;28;20478;-65
2024/01/04 01:28:32;;;;;;;3.60;0.67;;;8.60;18.10;;;;;;5024883;28;20470;-65
2024/01/04 01:31:01;;;;;;;5.67;0.60;;;8.60;17.90;;;;;;5033805;28;20486;-65
2024/01/04 01:33:27;;;;;;;5.37;1.27;;;8.60;17.70;;;;;;5031990;28;20535;-65
2024/01/04 01:35:54;;;;;;;4.70;0.70;;;8.60;17.60;;;;;;5026676;28;21169;-65
2024/01/04 01:38:21;;;;;;;4.80;0.80;;;8.60;17.50;;;;;;5026831;28;20824;-65
2024/01/04 01:40:49;;;;;;;6.23;0.60;;;8.70;17.50;;;;;;5030068;28;20470;-65
2024/01/04 01:43:16;;;;;;;4.60;0.93;;;8.70;17.40;;;;;;5030574;28;20482;-65
2024/01/04 01:45:42;;;;;;;6.50;1.07;;;8.70;17.50;;;;;;5026139;28;20510;-65
2024/01/04 01:48:11;;;;;;;3.60;0.70;;;8.70;17.30;;;;;;5029053;28;20459;-65
2024/01/04 01:50:38;;;;;;;5.20;0.70;;;8.70;17.30;;;;;;5030517;28;20477;-65
2024/01/04 01:53:05;;;;;;;5.87;0.80;;;8.60;17.00;;;;;;5030867;28;20473;-65
2024/01/04 01:55:32;;;;;;;7.17;1.27;;;8.60;17.10;;;;;;5026610;28;20458;-65
2024/01/04 01:58:00;;;;;;;5.13;1.00;;;8.60;17.10;;;;;;5027382;28;20478;-65
2024/01/04 02:00:27;;;;;;;4.10;1.00;;;8.60;16.80;;;;;;5026844;28;20459;-65
2024/01/04 02:02:55;;;;;;;4.17;1.00;;;8.60;16.80;;;;;;5027637;28;21127;-65
2024/01/04 02:05:22;;;;;;;3.40;0.60;;;8.50;16.90;;;;;;5026671;28;20881;-65
2024/01/04 02:07:49;;;;;;;4.57;0.67;;;8.50;16.90;;;;;;5026121;28;20463;-65
2024/01/04 02:10:16;;;;;;;5.73;0.90;;;8.50;17.00;;;;;;5027939;28;20473;-65
2024/01/04 02:12:43;;;;;;;5.27;1.17;;;8.50;16.80;;;;;;5026597;28;20483;-65
2024/01/04 02:15:11;;;;;;;4.90;0.83;;;8.50;16.80;;;;;;5026043;28;20463;-66
2024/01/04 02:17:39;;;;;;;4.40;1.10;;;8.60;16.70;;;;;;5028952;28;20474;-65
2024/01/04 02:20:07;;;;;;;4.30;0.90;;;8.60;16.70;;;;;;5026270;28;20504;-65
2024/01/04 02:22:35;;;;;;;7.73;1.03;;;8.60;16.60;;;;;;5025989;28;20463;-66
2024/01/04 02:25:03;;;;;;;6.70;0.93;;;8.60;16.40;;;;;;5028866;28;20490;-65
2024/01/04 02:27:30;;;;;;;5.13;0.90;;;8.60;16.50;;;;;;5031347;28;20462;-66
2024/01/04 02:29:57;;;;;;;4.70;0.90;;;8.60;16.50;;;;;;5029439;28;20459;-66
2024/01/04 02:32:24;;;;;;;4.07;0.70;;;8.60;16.40;;;;;;5029079;28;20474;-65
2024/01/04 02:34:50;;;;;;;5.60;1.20;;;8.60;16.40;;;;;;5026547;28;20967;-65
2024/01/04 02:37:17;;;;;;;6.53;1.47;;;8.60;16.40;;;;;;5028448;28;20497;-66
2024/01/04 02:39:44;;;;;;;6.67;1.10;;;8.60;16.40;;;;;;5028712;28;20478;-65
2024/01/04 02:42:12;;;;;;;4.73;1.00;;;8.60;16.40;;;;;;5033722;28;20458;-65
2024/01/04 02:44:38;;;;;;;8.37;0.80;;;8.60;16.30;;;;;;5029651;28;20487;-65
2024/01/04 02:47:05;;;;;;;8.40;1.30;;;8.60;16.20;;;;;;5036758;28;20490;-65
2024/01/04 02:49:32;;;;;;;6.47;1.00;;;8.60;16.40;;;;;;5032038;28;20466;-65
2024/01/04 02:51:59;;;;;;;6.67;1.00;;;8.60;16.40;;;;;;5032549;28;20466;-65
2024/01/04 02:54:25;;;;;;;3.60;0.70;;;8.60;16.40;;;;;;5031105;28;20489;-65
2024/01/04 02:56:52;;;;;;;4.70;1.00;;;8.60;16.20;;;;;;5034318;28;20463;-65
2024/01/04 02:59:20;;;;;;;5.30;0.70;;;8.60;16.20;;;;;;5032874;28;20998;-66
2024/01/04 03:01:48;;;;;;;4.10;1.00;;;8.60;16.20;;;;;;5028460;28;20494;-66
2024/01/04 03:04:15;;;;;;;6.13;0.93;;;8.60;16.00;;;;;;5024257;28;20493;-65
2024/01/04 03:06:42;;;;;;;4.17;0.90;;;8.70;16.30;;;;;;5029173;28;20486;-65
2024/01/04 03:09:09;;;;;;;3.93;0.90;;;8.70;16.30;;;;;;5032845;28;20490;-65
2024/01/04 03:11:36;;;;;;;4.63;0.60;;;8.70;16.30;;;;;;5030563;28;20450;-65
2024/01/04 03:14:03;;;;;;;6.40;0.70;;;8.70;16.40;;;;;;5028177;28;20514;-65
2024/01/04 03:16:31;;;;;;;3.90;0.50;;;8.70;16.30;;;;;;5026813;28;20539;-65
2024/01/04 03:18:58;;;;;;;4.20;0.60;;;8.70;16.80;;;;;;5030192;28;20489;-65
2024/01/04 03:21:25;;;;;;;4.70;0.70;;;8.70;17.20;;;;;;5034912;28;20976;-65
2024/01/04 03:23:52;;;;;;;6.00;1.03;;;8.70;17.60;;;;;;5026201;28;20492;-65
2024/01/04 03:26:19;;;;;;;6.30;1.17;;;8.70;17.70;;;;;;5032642;28;20597;-65
2024/01/04 03:28:46;;;;;;;5.40;0.73;;;8.70;17.90;;;;;;5026694;28;20612;-65
2024/01/04 03:31:13;;;;;;;7.73;0.97;;;8.60;18.00;;;;;;5029166;28;20478;-65
2024/01/04 03:33:41;;;;;;;3.67;0.80;;;8.60;18.10;;;;;;5032663;28;20512;-65
2024/01/04 03:36:09;;;;;;;3.67;0.60;;;8.60;18.00;;;;;;5026087;28;21217;-65
2024/01/04 03:38:35;;;;;;;5.70;0.97;;;8.60;18.10;;;;;;5028348;28;20505;-65
2024/01/04 03:41:02;;;;;;;5.23;1.03;;;8.60;18.20;;;;;;5026394;28;20451;-65
2024/01/04 03:43:30;;;;;;;5.53;1.20;;;8.50;18.30;;;;;;5027971;28;20837;-65
2024/01/04 03:45:57;;;;;;;3.87;0.50;;;8.50;18.50;;;;;;5029014;28;20838;-66
2024/01/04 03:48:23;;;;;;;4.30;0.70;;;8.50;18.60;;;;;;5026052;28;20482;-65
2024/01/04 03:50:51;;;;;;;5.47;0.80;;;8.50;18.80;;;;;;5028218;28;20467;-65
2024/01/04 03:53:18;;;;;;;7.00;1.10;;;8.50;19.10;;;;;;5025470;28;20485;-65
2024/01/04 03:55:45;;;;;;;4.50;0.60;;;8.50;19.30;;;;;;5029592;28;20963;-65
2024/01/04 03:58:11;;;;;;;5.03;0.83;;;8.50;19.60;;;;;;5028054;28;20466;-65
2024/01/04 04:00:38;;;;;;;4.23;0.70;;;8.50;19.80;;;;;;5024160;28;20474;-67
2024/01/04 04:03:05;;;;;;;10.23;1.07;;;8.40;20.00;;;;;;5029056;28;20498;-67
2024/01/04 04:05:32;;;;;;;5.70;0.93;;;8.40;20.20;;;;;;5032934;28;20483;-68
2024/01/04 04:08:01;;;;;;;5.57;0.73;;;8.40;20.20;;;;;;5032786;28;20459;-68
2024/01/04 04:10:27;;;;;;;5.53;1.13;;;8.40;20.40;;;;;;5029903;28;20466;-68
2024/01/04 04:12:54;;;;;;;4.90;1.10;;;8.40;20.60;;;;;;5025183;28;20994;-68
2024/01/04 04:15:21;;;;;;;4.47;0.80;;;8.40;20.80;;;;;;5030453;28;20457;-68
2024/01/04 04:17:47;;;;;;;5.87;0.90;;;8.40;21.20;;;;;;5028865;28;20931;-67
2024/01/04 04:20:14;;;;;;;5.77;0.70;;;8.40;21.40;;;;;;5026708;28;20470;-68
2024/01/04 04:22:41;;;;;;;4.73;1.10;;;8.40;21.60;;;;;;5029592;28;20487;-68
2024/01/04 04:25:10;;;;;;;6.60;1.43;;;8.40;21.90;;;;;;5024778;28;20478;-68
2024/01/04 04:27:37;;;;;;;4.10;0.60;;;8.40;22.10;;;;;;5025405;28;20459;-68
2024/01/04 04:30:05;;;;;;;3.47;0.90;;;8.40;22.30;;;;;;5027001;28;20471;-68
2024/01/04 04:32:32;;;;;;;5.47;0.80;;;8.30;22.40;;;;;;5027975;28;20490;-68
2024/01/04 04:34:58;;;;;;;4.53;1.00;;;8.30;22.80;;;;;;5027744;28;20951;-68
2024/01/04 04:37:25;;;;;;;5.20;1.00;;;8.30;23.10;;;;;;5029606;28;20474;-68
2024/01/04 04:39:52;;;;;;;5.10;0.70;;;8.20;23.70;;;;;;5025225;28;20467;-68
2024/01/04 04:42:20;;;;;;;5.33;0.80;;;8.20;23.30;;;;;;5032284;28;20493;-67
2024/01/04 04:44:46;;;;;;;3.57;0.80;;;8.10;23.50;;;;;;5027187;28;20470;-68
2024/01/04 04:47:13;;;;;;;4.93;0.77;;;8.10;23.70;;;;;;5032702;28;20477;-68
2024/01/04 04:49:40;;;;;;;6.17;0.87;;;8.10;23.70;;;;;;5030504;28;20463;-68
2024/01/04 04:52:06;;;;;;;4.23;0.80;;;8.10;23.80;;;;;;5025296;28;20834;-68
2024/01/04 04:54:33;;;;;;;4.57;1.10;;;8.10;23.80;;;;;;5030114;28;20479;-68
2024/01/04 04:57:00;;;;;;;5.63;1.03;;;8.10;24.10;;;;;;5032200;28;20454;-67
2024/01/04 04:59:28;;;;;;;4.07;1.00;;;8.10;24.20;;;;;;5027209;28;20948;-67
2024/01/04 05:01:55;;;;;;;3.67;0.73;;;8.10;24.40;;;;;;5021748;28;20471;-68
2024/01/04 05:04:22;;;;;;;7.27;1.10;;;8.00;24.80;;;;;;5027484;28;20482;-67
2024/01/04 05:06:50;;;;;;;6.13;0.80;;;8.00;24.90;;;;;;5022856;28;20570;-68
2024/01/04 05:09:17;;;;;;;7.50;1.17;;;8.00;24.90;;;;;;5025065;28;20528;-68
2024/01/04 05:11:44;;;;;;;4.70;0.80;;;8.00;25.00;;;;;;5027112;28;20500;-65
2024/01/04 05:14:11;;;;;;;5.47;0.90;;;8.00;24.90;;;;;;5024262;28;20478;-65
2024/01/04 05:16:39;;;;;;;5.63;1.03;;;7.90;25.00;;;;;;5028648;28;20466;-65
2024/01/04 05:19:09;;;;;;;5.67;1.10;;;7.90;25.00;;;;;;5033142;28;20462;-65
2024/01/04 05:21:36;;;;;;;5.30;1.00;;;7.90;25.00;;;;;;5027643;28;20454;-65
2024/01/04 05:24:02;;;;;;;7.33;1.37;;;7.90;24.80;;;;;;5024843;28;20493;-64
2024/01/04 05:26:29;;;;;;;4.30;0.80;;;7.90;24.50;;;;;;5026887;28;20917;-64
2024/01/04 05:28:56;;;;;;;4.77;0.90;;;7.90;24.50;;;;;;5028168;28;20483;-66
2024/01/04 05:31:23;;;;;;;4.20;1.03;;;7.90;24.10;;;;;;5027828;28;20491;-65
2024/01/04 05:33:51;;;;;;;5.00;0.80;;;7.90;24.00;;;;;;5029978;28;20483;-64
2024/01/04 05:36:17;;;;;;;4.40;0.77;;;7.90;23.80;;;;;;5027132;28;20466;-64
2024/01/04 05:38:44;;;;;;;6.00;0.90;;;7.90;23.60;;;;;;5025683;28;20840;-64
2024/01/04 05:41:11;;;;;;;7.00;1.17;;;7.80;23.70;;;;;;5027522;28;20470;-64
2024/01/04 05:43:37;;;;;;;5.97;0.97;;;7.80;23.70;;;;;;5029068;28;20486;-64
2024/01/04 05:46:05;;;;;;;6.13;1.00;;;7.80;23.50;;;;;;5028042;28;20562;-64
2024/01/04 05:48:32;;;;;;;5.90;0.87;;;7.80;23.50;;;;;;5028246;28;20963;-64
2024/01/04 05:51:00;;;;;;;6.10;0.90;;;7.80;23.50;;;;;;5028042;28;20478;-64
2024/01/04 05:53:26;;;;;;;3.17;0.60;;;7.80;23.60;;;;;;5026331;28;20486;-64
2024/01/04 05:55:53;;;;;;;3.60;0.53;;;7.80;23.50;;;;;;5026866;28;20530;-64
2024/01/04 05:58:20;;;;;;;3.70;0.80;;;7.80;23.30;;;;;;5027203;28;20477;-64
2024/01/04 06:00:47;;;;;;;4.63;1.30;;;7.80;22.90;;;;;;5022205;28;20470;-64
2024/01/04 06:03:14;;;;;;;4.50;1.03;;;7.80;22.90;;;;;;5025176;28;20486;-64
2024/01/04 06:05:40;;;;;;;4.67;0.50;;;7.90;23.00;;;;;;5024951;28;20993;-64
2024/01/04 06:08:09;;;;;;;3.40;0.80;;;7.90;22.80;;;;;;5024374;28;21047;-64
2024/01/04 06:10:35;;;;;;;3.17;0.53;;;7.90;22.80;;;;;;5033146;28;20462;-64
2024/01/04 06:13:02;;;;;;;5.00;0.87;;;7.90;22.70;;;;;;5033430;28;20482;-64
2024/01/04 06:15:29;;;;;;;3.27;0.40;;;7.90;22.50;;;;;;5029437;28;20474;-64
2024/01/04 06:17:55;;;;;;;4.13;0.50;;;7.90;22.50;;;;;;5030852;28;20505;-64
2024/01/04 06:20:22;;;;;;;4.17;0.93;;;7.90;22.50;;;;;;5029098;28;21005;-64
2024/01/04 06:22:50;;;;;;;4.63;0.60;;;7.90;22.30;;;;;;5034009;28;20491;-64
2024/01/04 06:25:18;;;;;;;4.13;0.70;;;8.00;22.20;;;;;;5031487;28;20463;-64
2024/01/04 06:27:45;;;;;;;7.10;1.10;;;8.00;22.20;;;;;;5033759;28;20474;-64
2024/01/04 06:30:12;;;;;;;5.63;0.63;;;8.00;22.00;;;;;;5024731;28;20948;-64
2024/01/04 06:32:39;;;;;;;6.97;0.80;;;8.00;21.90;;;;;;5030403;28;20831;-64
2024/01/04 06:35:05;;;;;;;5.20;1.10;;;8.00;21.80;;;;;;5026879;28;20478;-64
2024/01/04 06:37:32;;;;;;;9.80;1.67;;;8.00;21.70;;;;;;5020812;28;20452;-64
2024/01/04 06:39:59;;;;;;;7.33;0.77;;;8.00;21.60;;;;;;5025111;28;20470;-64
2024/01/04 06:42:27;;;;;;;4.90;0.70;;;8.00;21.50;;;;;;5024737;28;20835;-65
2024/01/04 06:44:54;;;;;;;5.70;0.77;;;8.00;21.50;;;;;;5025925;28;20474;-64
2024/01/04 06:47:21;;;;;;;7.97;1.30;;;8.00;21.40;;;;;;5027413;28;20483;-64
2024/01/04 06:49:47;;;;;;;4.20;1.47;;;8.00;21.50;;;;;;5029190;28;21062;-65
2024/01/04 06:52:14;;;;;;;6.70;1.20;;;8.00;21.40;;;;;;5027758;28;20459;-65
2024/01/04 06:54:41;;;;;;;5.63;0.70;;;8.10;21.50;;;;;;5025636;28;20488;-67
2024/01/04 06:57:07;;;;;;;3.87;0.83;;;8.00;21.50;;;;;;5025125;28;20459;-68
2024/01/04 06:59:36;;;;;;;5.00;0.73;;;8.00;21.50;;;;;;5025213;28;20471;-67
2024/01/04 07:02:04;;;;;;;5.60;0.70;;;8.00;21.60;;;;;;5023700;28;21172;-65
2024/01/04 07:04:31;;;;;;;4.60;0.70;;;8.00;21.60;;;;;;5021203;28;20983;-67
2024/01/04 07:06:58;;;;;;;4.73;0.87;;;8.00;21.50;;;;;;5023446;28;21073;-66
2024/01/04 07:09:25;;;;;;;4.43;0.80;;;8.00;21.60;;;;;;5083204;22;20490;-64
2024/01/04 07:11:52;;;;;;;5.93;1.00;;;7.90;21.70;;;;;;5027773;28;20969;-63
2024/01/04 07:14:19;;;;;;;7.17;0.90;;;7.90;21.60;;;;;;5029583;28;20506;-65
2024/01/04 07:16:49;;;;;;;3.63;0.70;;;7.90;21.60;;;;;;5030918;28;20459;-66
2024/01/04 07:19:16;;;;;;;4.17;0.60;;;7.90;21.60;;;;;;5027344;28;20569;-64
2024/01/04 07:21:42;;;;;;;3.20;0.60;;;7.80;21.50;;;;;;5028056;28;20463;-64
2024/01/04 07:24:09;;;;;;;4.50;0.83;;;7.80;21.60;;;;;;5025503;28;20479;-66
2024/01/04 07:26:37;;;;;;;4.40;0.60;;;7.90;21.80;;;;;;5021084;28;20506;-64
2024/01/04 07:29:04;;;;;;;4.20;0.93;;;7.80;21.50;;;;;;5025762;28;20474;-64
2024/01/04 07:31:31;;;;;;;3.23;0.60;;;7.90;21.40;;;;;;5030595;28;20474;-65
2024/01/04 07:33:59;;;;;;;3.90;0.57;;;7.90;21.20;;;;;;5022824;28;20490;-65
2024/01/04 07:36:26;;;;;;;5.20;0.67;;;7.80;21.10;;;;;;5025109;28;20463;-65
2024/01/04 07:38:52;;;;;;;3.70;0.60;;;7.90;21.10;;;;;;5025595;28;20983;-65
2024/01/04 07:41:19;;;;;;;3.60;0.60;;;7.90;21.00;;;;;;5025163;28;20470;-66
2024/01/04 07:43:47;;;;;;;5.20;1.60;;;7.90;21.00;;;;;;5023146;28;20483;-67
2024/01/04 07:46:13;;;;;;;4.90;0.50;;;7.90;21.00;;;;;;5026039;28;20583;-65
2024/01/04 07:48:40;;;;;;;3.90;0.60;;;7.90;21.20;;;;;;5030359;28;20836;-71
2024/01/04 07:51:08;;;;;;;5.40;0.70;;;7.90;21.40;;;;;;5027029;28;20463;-65
2024/01/04 07:53:35;;;;;;;4.90;0.80;;;8.00;21.30;;;;;;5025129;28;21174;-67
2024/01/04 07:56:01;;;;;;;3.73;1.03;;;8.10;21.40;;;;;;5022734;28;20470;-65
2024/01/04 07:58:28;;;;;;;4.63;0.87;;;8.10;21.40;;;;;;5029582;28;20458;-68
2024/01/04 08:00:55;;;;;;;4.40;1.17;;;8.20;21.40;;;;;;5028546;28;20486;-67
2024/01/04 08:03:21;;;;;;;5.17;0.90;;;8.30;21.50;;;;;;5024728;28;20484;-66
2024/01/04 08:05:48;;;;;;;5.23;0.90;;;8.50;21.20;;;;;;5025723;28;20464;-66
2024/01/04 08:08:16;;;;;;;8.60;0.70;;;8.80;20.80;;;;;;5027733;28;21203;-66
2024/01/04 08:10:43;;;;;;;4.07;0.70;;;9.20;19.80;;;;;;5026839;28;20513;-67
2024/01/04 08:13:10;;;;;;;6.27;1.50;;;9.80;18.60;;;;;;5022952;28;20863;-67
2024/01/04 08:15:37;;;;;;;4.23;0.73;;;10.00;17.50;;;;;;5022644;28;20473;-68
2024/01/04 08:18:04;;;;;;;7.30;1.07;;;10.50;16.80;;;;;;5019095;28;20485;-68
2024/01/04 08:20:32;;;;;;;3.97;0.80;;;10.60;15.70;;;;;;5027334;28;20462;-68
2024/01/04 08:22:58;;;;;;;5.07;1.00;;;10.40;15.70;;;;;;5027296;28;20487;-68
2024/01/04 08:25:27;;;;;;;5.80;1.43;;;10.30;15.80;;;;;;5028712;28;20455;-68
2024/01/04 08:27:54;;;;;;;3.80;0.97;;;10.30;15.90;;;;;;5029240;28;20561;-69
2024/01/04 08:30:21;;;;;;;4.60;1.00;;;10.30;15.90;;;;;;5023493;28;20463;-68
2024/01/04 08:32:47;;;;;;;5.77;1.30;;;10.30;15.80;;;;;;5026265;28;20478;-68
2024/01/04 08:35:17;;;;;;;6.13;1.17;;;10.20;15.70;;;;;;5026231;28;20477;-69
2024/01/04 08:37:45;;;;;;;4.00;1.13;;;10.10;16.00;;;;;;5026795;28;20459;-68
2024/01/04 08:40:12;;;;;;;5.20;1.40;;;10.00;16.30;;;;;;5022455;28;20474;-68
2024/01/04 08:42:40;;;;;;;9.63;1.73;;;9.90;16.60;;;;;;5026140;28;20455;-68
2024/01/04 08:45:08;;;;;;;5.20;1.57;;;10.00;16.40;;;;;;5022325;28;20490;-68
2024/01/04 08:47:35;;;;;;;6.00;1.30;;;10.00;16.10;;;;;;5027190;28;21003;-68
2024/01/04 08:50:02;;;;;;;9.10;1.03;;;10.10;16.40;;;;;;5024980;28;20470;-68
2024/01/04 08:52:29;;;;;;;6.07;1.33;;;10.60;15.90;;;;;;5024658;28;21381;-68
2024/01/04 08:54:55;;;;;;;5.03;0.90;;;11.10;14.80;;;;;;5025786;28;20474;-68
2024/01/04 08:57:23;;;;;;;5.27;1.17;;;11.70;13.40;;;;;;5022395;28;20471;-68
2024/01/04 08:59:51;;;;;;;4.53;0.90;;;11.90;12.50;;;;;;5022769;28;20456;-68
2024/01/04 09:02:18;;;;;;;4.47;0.80;;;12.00;12.40;;;;;;5021838;28;20478;-68
2024/01/04 09:04:45;;;;;;;4.00;0.90;;;12.30;11.80;;;;;;5030175;28;20846;-68
2024/01/04 09:07:12;;;;;;;5.60;1.00;;;12.50;11.10;;;;;;5026798;28;20637;-68
2024/01/04 09:09:40;;;;;;;5.97;0.90;;;12.80;10.40;;;;;;5029490;28;20517;-68
2024/01/04 09:12:07;;;;;;;5.50;1.80;;;13.00;10.20;;;;;;5027145;28;20939;-68
2024/01/04 09:14:33;;;;;;;8.23;1.13;;;13.30;9.40;;;;;;5028846;28;20482;-69
2024/01/04 09:17:01;;;;;;;4.03;0.93;;;13.50;8.10;;;;;;5023766;28;20524;-68
2024/01/04 09:19:28;;;;;;;4.17;0.83;;;13.60;7.10;;;;;;5029000;28;20463;-68
2024/01/04 09:21:55;;;;;;;3.97;0.80;;;13.90;6.70;;;;;;5029923;28;20959;-68
2024/01/04 09:24:22;;;;;;;7.00;1.50;;;14.30;5.50;;;;;;5039420;22;20513;-62
2024/01/04 09:26:50;;;;;;;6.30;1.57;;;14.40;5.10;;;;;;5040523;28;20486;-65
2024/01/04 09:29:17;;;;;;;5.90;0.97;;;14.50;4.80;;;;;;5048191;28;20455;-65
2024/01/04 09:31:44;;;;;;;6.30;1.20;;;14.20;4.50;;;;;;5042101;28;20485;-65
2024/01/04 09:34:12;;;;;;;5.37;1.00;;;14.10;5.40;;;;;;5043522;28;20485;-65
2024/01/04 09:36:38;;;;;;;4.97;1.00;;;14.10;5.40;;;;;;5050473;28;20944;-65
2024/01/04 09:39:05;;;;;;;5.97;1.60;;;14.10;5.80;;;;;;5047508;28;20458;-66
2024/01/04 09:41:33;;;;;;;5.87;1.70;;;14.20;6.00;;;;;;5039609;28;20471;-65
2024/01/04 09:44:03;;;;;;;5.97;1.27;;;14.30;5.70;;;;;;5043632;28;20499;-65
2024/01/04 09:46:34;;;;;;;6.30;1.03;;;14.40;5.50;;;;;;5042021;28;20484;-65
2024/01/04 09:49:02;;;;;;;5.47;1.37;;;14.50;5.30;;;;;;5044852;28;20466;-66
2024/01/04 09:51:33;;;;;;;5.90;1.30;;;14.60;5.00;;;;;;5046538;28;20466;-65
2024/01/04 09:54:01;;;;;;;6.90;1.10;;;14.70;4.90;;;;;;5049544;28;20512;-64
2024/01/04 09:56:29;;;;;;;4.97;1.30;;;14.70;4.40;;;;;;5049680;28;20519;-66
2024/01/04 09:58:56;;;;;;;4.43;1.13;;;14.70;4.10;;;;;;5049847;28;20450;-66
2024/01/04 10:01:26;;;;;;;6.60;1.50;;;14.50;4.20;;;;;;5049022;28;20478;-66
2024/01/04 10:03:54;;;;;;;4.93;1.23;;;14.60;4.60;;;;;;5047990;28;20481;-66
2024/01/04 10:06:25;;;;;;;6.00;1.57;;;14.60;4.90;;;;;;5046647;28;20462;-66
2024/01/04 10:08:57;;;;;;;8.20;1.83;;;14.50;3.60;;;;;;5048009;28;20478;-64
2024/01/04 10:11:29;;;;;;;4.40;1.30;;;14.20;3.90;;;;;;5043835;28;20454;-66
2024/01/04 10:13:56;;;;;;;5.63;2.23;;;14.00;4.50;;;;;;5045323;28;20564;-67
2024/01/04 10:16:23;;;;;;;7.70;1.20;;;13.90;5.20;;;;;;5046513;28;20450;-65
2024/01/04 10:18:52;;;;;;;7.47;1.70;;;14.00;5.30;;;;;;5047752;28;20898;-64
2024/01/04 10:21:18;;;;;;;4.10;1.47;;;14.00;5.60;;;;;;5041719;28;20963;-65
2024/01/04 10:23:45;;;;;;;6.00;1.03;;;14.10;5.60;;;;;;5046442;28;20489;-66
2024/01/04 10:26:17;;;;;;;6.87;1.93;;;14.30;5.30;;;;;;5048078;28;20859;-64
2024/01/04 10:28:44;;;;;;;5.30;1.37;;;14.50;5.30;;;;;;5044611;28;20495;-65
2024/01/04 10:31:11;;;;;;;5.10;1.50;;;14.70;4.40;;;;;;5045581;28;20486;-66
2024/01/04 10:33:38;;;;;;;4.97;1.50;;;14.90;4.50;;;;;;5041538;28;20484;-65
2024/01/04 10:36:09;;;;;;;5.93;1.30;;;15.10;3.80;;;;;;5047491;28;20490;-65
2024/01/04 10:38:37;;;;;;;5.00;1.50;;;15.30;2.80;;;;;;5046368;28;21020;-65
2024/01/04 10:41:04;;;;;;;6.23;1.60;;;15.10;2.50;;;;;;5046391;28;20587;-65
2024/01/04 10:43:32;;;;;;;4.97;1.10;;;14.80;3.00;;;;;;5045899;28;20484;-65
2024/01/04 10:46:05;;;;;;;6.93;1.30;;;14.50;3.20;;;;;;5046083;28;20462;-64
2024/01/04 10:48:32;;;;;;;5.30;1.00;;;14.40;3.60;;;;;;5043815;28;20482;-65
2024/01/04 10:51:04;;;;;;;6.67;1.50;;;14.10;3.80;;;;;;5045195;28;20459;-65
2024/01/04 10:53:35;;;;;;;7.03;1.40;;;13.80;4.40;;;;;;5044457;28;20486;-65
2024/01/04 10:56:04;;;;;;;6.00;1.33;;;13.60;4.90;;;;;;5046266;28;20458;-64
2024/01/04 10:58:35;;;;;;;8.00;1.13;;;13.40;5.00;;;;;;5048961;28;20522;-65
2024/01/04 11:01:05;;;;;;;3.87;1.00;;;13.10;5.50;;;;;;5043957;28;20821;-64
2024/01/04 11:03:32;;;;;;;4.43;1.60;;;12.80;6.00;;;;;;5045071;28;20482;-64
2024/01/04 11:06:00;;;;;;;4.97;1.23;;;12.70;6.90;;;;;;5045535;28;20462;-65
2024/01/04 11:08:27;;;;;;;10.93;3.50;;;12.70;7.90;;;;;;5045069;28;20546;-64
2024/01/04 11:10:55;;;;;;;5.97;1.07;;;12.70;7.50;;;;;;5043307;28;20459;-65
2024/01/04 11:13:21;;;;;;;8.30;1.83;;;12.50;7.50;;;;;;5045237;28;20470;-65
2024/01/04 11:15:52;;;;;;;6.23;1.47;;;12.30;7.80;;;;;;5046856;28;20446;-65
2024/01/04 11:18:37;;;;;;;11.63;1.40;;;12.20;8.30;;;;;;5041593;28;20935;-64
2024/01/04 11:21:28;;;;;;;6.43;1.90;;;12.00;8.60;;;;;;5045554;28;20471;-65
2024/01/04 11:24:03;;;;;;;8.63;1.73;;;12.00;8.90;;;;;;5048359;28;20481;-65
2024/01/04 11:26:38;;;;;;;8.70;1.20;;;11.90;9.60;;;;;;5047535;28;20949;-65
2024/01/04 11:29:09;;;;;;;5.30;1.57;;;11.80;9.40;;;;;;5045762;28;20495;-65
2024/01/04 11:31:42;;;;;;;6.33;1.57;;;11.70;9.20;;;;;;5041662;28;20502;-65
2024/01/04 11:34:10;;;;;;;8.47;2.80;;;11.60;9.40;;;;;;5045026;28;20497;-65
2024/01/04 11:36:38;;;;;;;8.97;3.80;;;11.50;9.80;;;;;;5046814;28;20458;-64
2024/01/04 11:39:05;;;;;;;9.93;5.50;;;11.40;10.20;;;;;;5044902;28;20483;-65
2024/01/04 11:41:34;;;;;;;10.67;4.83;;;11.50;10.60;;;;;;5044264;28;20485;-65
2024/01/04 11:44:01;;;;;;;7.40;4.57;;;11.60;10.60;;;;;;5046404;28;20486;-65
2024/01/04 11:46:27;;;;;;;7.10;3.43;;;11.70;10.80;;;;;;5043309;28;20466;-64
2024/01/04 11:48:56;;;;;;;7.03;1.70;;;11.80;10.60;;;;;;5047670;28;20490;-65
2024/01/04 11:51:34;;;;;;;8.23;2.37;;;11.80;10.50;;;;;;5046996;28;20468;-65
2024/01/04 11:54:01;;;;;;;4.83;1.13;;;11.70;10.40;;;;;;5045528;28;20496;-65
2024/01/04 11:56:28;;;;;;;4.73;1.83;;;11.70;10.40;;;;;;5045200;28;20455;-64
2024/01/04 11:59:05;;;;;;;6.50;1.60;;;11.70;10.30;;;;;;5046246;28;21045;-66
2024/01/04 12:01:33;;;;;;;9.07;5.33;;;11.70;10.50;;;;;;5044196;28;20813;-66
2024/01/04 12:04:07;;;;;;;12.03;4.00;;;11.80;10.60;;;;;;5047876;28;20490;-67
2024/01/04 12:06:35;;;;;;;7.70;4.00;;;11.80;10.80;;;;;;5042390;28;21371;-66
2024/01/04 12:09:02;;;;;;;4.70;1.70;;;11.80;10.80;;;;;;5044519;28;20934;-66
2024/01/04 12:11:29;;;;;;;6.30;3.23;;;11.80;11.00;;;;;;5038465;28;20811;-66
2024/01/04 12:13:56;;;;;;;7.60;3.30;;;11.80;11.30;;;;;;5046876;28;20515;-68
2024/01/04 12:16:22;;;;;;;5.97;3.20;;;11.80;11.00;;;;;;5042586;28;20714;-67
2024/01/04 12:18:49;;;;;;;5.93;2.83;;;11.60;11.10;;;;;;5042777;28;20465;-66
2024/01/04 12:21:17;;;;;;;7.17;5.70;;;11.60;11.30;;;;;;5042713;28;20470;-67
2024/01/04 12:23:45;;;;;;;5.40;2.83;;;11.50;11.50;;;;;;5042801;28;20490;-67
2024/01/04 12:26:12;;;;;;;5.10;2.47;;;11.50;11.70;;;;;;5045041;28;20522;-67
2024/01/04 12:28:40;;;;;;;5.13;1.60;;;11.50;11.70;;;;;;5046745;28;20990;-67
2024/01/04 12:31:08;;;;;;;7.60;1.47;;;11.50;11.90;;;;;;5040902;28;20482;-67
2024/01/04 12:33:35;;;;;;;8.40;1.70;;;11.50;12.10;;;;;;5046718;28;20573;-67
2024/01/04 12:36:02;;;;;;;4.93;2.53;;;11.50;12.30;;;;;;5046586;28;20466;-67
2024/01/04 12:38:30;;;;;;;5.10;1.43;;;11.50;12.20;;;;;;5045580;28;20450;-67
2024/01/04 12:40:57;;;;;;;4.33;1.90;;;11.50;12.00;;;;;;5043701;28;20842;-67
2024/01/04 12:43:24;;;;;;;6.20;2.10;;;11.50;11.90;;;;;;5046758;28;20489;-67
2024/01/04 12:46:02;;;;;;;7.23;1.87;;;11.50;11.90;;;;;;5043930;28;20967;-67
2024/01/04 12:48:29;;;;;;;4.80;1.57;;;11.60;11.30;;;;;;5048118;28;20863;-67
2024/01/04 12:50:56;;;;;;;4.23;0.90;;;11.70;11.50;;;;;;5043758;28;20461;-68
2024/01/04 12:53:22;;;;;;;4.33;0.93;;;11.90;11.60;;;;;;5044186;28;20536;-66
2024/01/04 12:55:51;;;;;;;4.00;1.00;;;12.00;10.60;;;;;;5044523;28;20466;-67